^^
Meteo Knjazevac Station Historical Data
Daily Summary for June 23, 2022 Units:  Metric    English   Both
Daily Weekly Monthly Yearly Custom
  High: Low: Average:
Temperature: 21.1 °C 17 °C 18.8 °C
Dew Point: 16.9 °C 15.3 °C 16.1 °C
Humidity: 91% 77% 84%
Wind Speed: 4.8km/h 0km/h 1km/h
Wind Gust: 14.5km/h - -
Wind- - WSW
Pressure: 1014.8 hPa 1013.1 hPa -
Precipitation: 0 mm    
Historical Graphs
 
 
Tabular Data for June 23, 2022
Time Temperature Dew Point Pressure Wind Wind Speed Wind Gust Humidity Rainfall Rate (Hourly) solar Conditions
00:10 21.1 °C 16.9 °C 1014.8 hPa West 1.6 km/h 3.2 km/h 77% 0 mm 0 W/m2
00:20 20.9 °C 16.7 °C 1014.8 hPa ESE 1.6 km/h 4.8 km/h 77% 0 mm 0 W/m2
00:30 20.8 °C 16.8 °C 1014.8 hPa East 1.6 km/h 4.8 km/h 78% 0 mm 0 W/m2
00:40 20.6 °C 16.8 °C 1014.4 hPa Calm   8 km/h 79% 0 mm 0 W/m2
00:50 20.3 °C 16.7 °C 1014.4 hPa Calm   4.8 km/h 80% 0 mm 0 W/m2
01:00 20.1 °C 16.6 °C 1014.4 hPa West 1.6 km/h 6.4 km/h 80% 0 mm 0 W/m2
01:10 19.9 °C 16.6 °C 1014.4 hPa West 3.2 km/h 4.8 km/h 81% 0 mm 0 W/m2
01:20 19.7 °C 16.3 °C 1014.4 hPa Calm   4.8 km/h 81% 0 mm 0 W/m2
01:30 19.6 °C 16.2 °C 1014.4 hPa Calm   4.8 km/h 81% 0 mm 0 W/m2
01:40 19.7 °C 16.2 °C 1014.1 hPa Calm   4.8 km/h 80% 0 mm 0 W/m2
01:50 19.8 °C 16.4 °C 1014.1 hPa SW 1.6 km/h 8 km/h 81% 0 mm 0 W/m2
02:00 19.8 °C 16.4 °C 1014.1 hPa Calm   3.2 km/h 81% 0 mm 0 W/m2
02:10 19.6 °C 16.3 °C 1014.1 hPa SW 1.6 km/h 3.2 km/h 81% 0 mm 0 W/m2
02:30 19.3 °C 16.3 °C 1014.1 hPa West 1.6 km/h 3.2 km/h 83% 0 mm 0 W/m2
02:50 19 °C 16.2 °C 1013.8 hPa Calm   3.2 km/h 84% 0 mm 0 W/m2
03:00 18.9 °C 16.1 °C 1013.8 hPa NNW 1.6 km/h 4.8 km/h 84% 0 mm 0 W/m2
03:10 18.8 °C 16.2 °C 1013.8 hPa West 1.6 km/h 3.2 km/h 85% 0 mm 0 W/m2
03:20 18.7 °C 16.2 °C 1013.4 hPa Calm   4.8 km/h 85% 0 mm 0 W/m2
03:30 18.6 °C 16.1 °C 1013.4 hPa Calm   3.2 km/h 85% 0 mm 0 W/m2
03:40 18.5 °C 15.9 °C 1013.4 hPa Calm   3.2 km/h 85% 0 mm 0 W/m2
03:50 18.4 °C 16 °C 1013.8 hPa WSW 1.6 km/h 4.8 km/h 86% 0 mm 0 W/m2
04:10 18 °C 15.6 °C 1013.8 hPa WSW 1.6 km/h 4.8 km/h 86% 0 mm 0 W/m2
04:20 17.8 °C 15.8 °C 1013.8 hPa West 3.2 km/h 4.8 km/h 88% 0 mm 0 W/m2
04:30 17.7 °C 15.7 °C 1013.8 hPa West 1.6 km/h 4.8 km/h 88% 0 mm 0 W/m2
04:40 17.7 °C 15.7 °C 1013.8 hPa Calm   3.2 km/h 88% 0 mm 0 W/m2
04:50 17.6 °C 15.6 °C 1013.8 hPa Calm   1.6 km/h 88% 0 mm 2 W/m2
05:00 17.6 °C 15.6 °C 1013.4 hPa WNW 1.6 km/h 3.2 km/h 88% 0 mm 5 W/m2
05:10 17.4 °C 15.6 °C 1013.8 hPa NNW 1.6 km/h 3.2 km/h 89% 0 mm 9 W/m2
05:30 17.2 °C 15.4 °C 1013.4 hPa Calm   3.2 km/h 89% 0 mm 23 W/m2
05:40 17.1 °C 15.4 °C 1013.1 hPa Calm   3.2 km/h 90% 0 mm 23 W/m2
05:50 17 °C 15.3 °C 1013.4 hPa Calm   1.6 km/h 90% 0 mm 22 W/m2
06:00 17.1 °C 15.4 °C 1013.1 hPa Calm   3.2 km/h 90% 0 mm 14 W/m2
06:10 17.3 °C 15.8 °C 1014.4 hPa NNW 4.8 km/h 14.5 km/h 91% 0 mm 2 W/m2
Knjazevac, Serbia
Compliments of Weather Underground - 2 mb